Главная страница
METAR-TAF:

METAR-TAF

Аэропорты :

Могилёв, Белоруссия

широта: 53-57-18N, долгота: 030-05-42E, высота над уровнем моря: 194 м

Текущие метеонаблюдения

Эта сводка был подготовлена 1 час и 11 минут назад, в 04:00 UTC
Штиль
Температура -2°C
Влажность 93%
Давление 1024 hPa
Видимость: 5000 м

METAR: UMOO 220400Z 00000MPS 5000 NSC M02/M03 Q1024 NOSIG

Время: 08:11 (05:11 UTC)

Прогноз

Эта сводка был подготовлена 18 часа и 11 минут назад, в 11:00 UTC
Прогноз действительный с 21-го 12 UTC до 21-го 21 UTC
Ветер 4 Узел переменных направлений
Видимость 10 км и более
Отдельные облака на высоте 2500 фута
временами
С 21-го 12 UTC до 21-го 18 UTC
Ветер 8 Узел от восточно-северо-восточный
временами
С 21-го 18 UTC до 21-го 21 UTC
Видимость: 4000 м
Отдельные облака на высоте 1500 фута
дымка

TAF: UMOO 211100Z 2112/2121 VRB02MPS 9999 SCT025 TEMPO 2112/2118 06004MPS TEMPO 2118/2121 4000 BR SCT015

Метеонаблюдения и прогнозы для более 4000 аэропортов (сводки METAR и TAF).

Имеющиеся станции представлены на карте желтыми и красными точками.

Чтобы увидеть название станции, наведите на нее мышь.

Затем щелкните, чтобы увидеть метеонаблюдения и метеопрогнозы.

Управление картой: чтобы увеличить масштаб, щелкните зеленые кнопки с черным крестиком; чтобы уменьшить масштаб, щелкните зеленую кнопку с тире; для просмотра соседних карт щелкайте зеленые стрелки.


METAR-TAF: